createdAt,value
2023-03-29T00:01:36.637Z,101089.66
2023-03-29T00:06:38.195Z,101090.72
2023-03-29T00:11:39.729Z,101084.84
2023-03-29T00:16:41.355Z,101081.41
2023-03-29T00:21:42.840Z,101082.28
2023-03-29T00:26:44.343Z,101083.44
2023-03-29T00:31:52.356Z,101071.16
2023-03-29T00:36:57.880Z,101062.31
2023-03-29T00:41:59.397Z,101052.44
2023-03-29T00:47:00.959Z,101039.03
2023-03-29T00:52:02.476Z,101048.56
2023-03-29T00:57:05.152Z,101042.56
2023-03-29T01:02:07.604Z,101037.66
2023-03-29T01:07:35.885Z,101022.91
2023-03-29T01:12:44.117Z,101017.03
2023-03-29T01:17:50.406Z,101010.09
2023-03-29T01:23:26.976Z,101006.63
2023-03-29T01:28:34.183Z,100994.97
2023-03-29T01:33:43.786Z,100991.50
2023-03-29T01:38:56.971Z,100985.34
2023-03-29T01:44:07.195Z,100978.22
2023-03-29T01:49:22.413Z,100973.16
2023-03-29T01:54:36.969Z,100970.84
2023-03-29T01:59:43.338Z,100962.19
2023-03-29T02:04:50.123Z,100953.44
2023-03-29T02:09:53.754Z,100952.53
2023-03-29T02:14:58.186Z,100942.34
2023-03-29T02:20:14.704Z,100935.63
2023-03-29T02:25:17.513Z,100937.41
2023-03-29T02:30:21.039Z,100922.63
2023-03-29T02:35:35.041Z,100913.94
2023-03-29T02:40:39.161Z,100912.84
2023-03-29T02:45:42.134Z,100907.28
2023-03-29T02:50:49.818Z,100907.09
2023-03-29T02:55:51.720Z,100896.63
2023-03-29T03:00:53.578Z,100886.94
2023-03-29T03:05:55.019Z,100878.69
2023-03-29T03:10:56.614Z,100871.41
2023-03-29T03:15:59.415Z,100872.69
2023-03-29T03:21:04.603Z,100859.53
2023-03-29T03:26:06.242Z,100861.94
2023-03-29T03:31:16.126Z,100862.03
2023-03-29T03:36:50.583Z,100849.75
2023-03-29T03:41:52.062Z,100853.22
2023-03-29T03:46:53.915Z,100849.63
2023-03-29T03:51:55.993Z,100847.56
2023-03-29T03:56:57.678Z,100842.34
2023-03-29T04:02:12.788Z,100843.56
2023-03-29T04:07:14.632Z,100839.78
2023-03-29T04:12:35.809Z,100845.00
2023-03-29T04:17:37.779Z,100834.78
2023-03-29T04:22:53.848Z,100831.25
2023-03-29T04:27:56.389Z,100840.22
2023-03-29T04:33:13.201Z,100824.00
2023-03-29T04:38:23.005Z,100817.66
2023-03-29T04:43:25.873Z,100822.56
2023-03-29T04:48:34.048Z,100808.44
2023-03-29T04:53:36.743Z,100812.63
2023-03-29T04:58:38.376Z,100807.56
2023-03-29T05:03:40.213Z,100806.03
2023-03-29T05:08:55.298Z,100806.34
2023-03-29T05:14:03.297Z,100794.88
2023-03-29T05:19:11.627Z,100789.13
2023-03-29T05:24:17.175Z,100779.25
2023-03-29T05:29:33.065Z,100776.06
2023-03-29T05:34:53.989Z,100775.69
2023-03-29T05:40:08.369Z,100780.97
2023-03-29T05:45:24.603Z,100787.41
2023-03-29T05:50:26.690Z,100783.06
2023-03-29T05:55:30.122Z,100782.97
2023-03-29T06:00:37.006Z,100781.63
2023-03-29T06:06:00.522Z,100780.97
2023-03-29T06:11:05.775Z,100792.22
2023-03-29T06:16:37.598Z,100786.50
2023-03-29T06:21:39.338Z,100786.78
2023-03-29T06:26:42.063Z,100786.16
2023-03-29T06:31:43.866Z,100783.94
2023-03-29T06:37:01.485Z,100781.72
2023-03-29T06:42:13.007Z,100786.78
2023-03-29T06:47:33.647Z,100775.88
2023-03-29T06:52:35.241Z,100773.78
2023-03-29T06:57:36.818Z,100776.84
2023-03-29T07:02:39.913Z,100772.16
2023-03-29T07:08:11.804Z,100760.09
2023-03-29T07:13:30.495Z,100761.94
2023-03-29T07:18:34.135Z,100758.09
2023-03-29T07:23:36.051Z,100770.38
2023-03-29T07:28:39.330Z,100775.41
2023-03-29T07:33:41.608Z,100774.34
2023-03-29T07:38:44.143Z,100783.72
2023-03-29T07:43:52.049Z,100778.00
2023-03-29T07:48:58.204Z,100772.81
2023-03-29T07:54:00.007Z,100784.81
2023-03-29T07:59:16.857Z,100786.25
2023-03-29T08:04:23.258Z,100775.56
2023-03-29T08:09:45.003Z,100776.03
2023-03-29T08:14:47.195Z,100771.44
2023-03-29T08:19:55.417Z,100768.03
2023-03-29T08:24:58.698Z,100765.28
2023-03-29T08:30:08.165Z,100756.66
2023-03-29T08:35:13.529Z,100763.75
2023-03-29T08:40:29.967Z,100765.25
2023-03-29T08:45:53.420Z,100762.59
2023-03-29T08:51:00.225Z,100756.81
2023-03-29T08:56:12.772Z,100752.09
2023-03-29T09:01:37.536Z,100737.28
2023-03-29T09:06:40.050Z,100739.59
2023-03-29T09:12:03.406Z,100738.75
2023-03-29T09:17:23.068Z,100727.78
2023-03-29T09:22:41.013Z,100723.72
2023-03-29T09:28:00.095Z,100724.75
2023-03-29T09:33:37.245Z,100728.75
2023-03-29T09:38:49.026Z,100720.59
2023-03-29T09:43:52.191Z,100719.72
2023-03-29T09:48:58.581Z,100719.63
2023-03-29T09:54:01.138Z,100714.09
2023-03-29T09:59:32.132Z,100707.28
2023-03-29T10:04:34.261Z,100698.63
2023-03-29T10:09:35.981Z,100699.63
2023-03-29T10:14:54.252Z,100696.56
2023-03-29T10:20:04.043Z,100692.81
2023-03-29T10:25:13.198Z,100689.19
2023-03-29T10:30:22.529Z,100686.50
2023-03-29T10:35:40.032Z,100683.66
2023-03-29T10:41:17.447Z,100676.28
2023-03-29T10:46:28.311Z,100676.06
2023-03-29T10:51:33.291Z,100670.97
2023-03-29T10:56:50.784Z,100662.50
2023-03-29T11:01:53.649Z,100650.44
2023-03-29T11:07:20.052Z,100645.72
2023-03-29T11:12:50.220Z,100629.63
2023-03-29T11:17:58.228Z,100627.78
2023-03-29T11:23:22.455Z,100630.69
2023-03-29T11:28:54.221Z,100624.50
2023-03-29T11:34:34.826Z,100624.28
2023-03-29T11:40:10.824Z,100618.19
2023-03-29T11:45:17.581Z,100613.75
2023-03-29T11:50:29.180Z,100602.44
2023-03-29T11:55:37.695Z,100603.13
2023-03-29T12:00:46.692Z,100600.97
2023-03-29T12:06:22.352Z,100591.47
2023-03-29T12:11:36.244Z,100574.16
2023-03-29T12:17:15.936Z,100575.97
2023-03-29T12:22:22.332Z,100572.38
2023-03-29T12:27:39.511Z,100563.03
2023-03-29T12:33:21.590Z,100548.16
2023-03-29T12:38:31.142Z,100550.72
2023-03-29T12:43:51.562Z,100539.25
2023-03-29T12:49:31.803Z,100539.16
2023-03-29T12:54:33.785Z,100530.59
2023-03-29T12:59:47.727Z,100516.13
2023-03-29T13:04:53.704Z,100517.13
2023-03-29T13:09:58.074Z,100522.25
2023-03-29T13:15:02.807Z,100524.06
2023-03-29T13:20:37.248Z,100511.66
2023-03-29T13:26:00.624Z,100505.00
2023-03-29T13:31:12.302Z,100512.91
2023-03-29T13:36:24.946Z,100512.66
2023-03-29T13:41:28.912Z,100505.03
2023-03-29T13:46:41.897Z,100500.00
2023-03-29T13:52:09.224Z,100490.78
2023-03-29T13:57:24.754Z,100486.25
2023-03-29T14:02:43.598Z,100492.09
2023-03-29T14:07:50.034Z,100473.22
2023-03-29T14:12:53.597Z,100473.94
2023-03-29T14:17:58.993Z,100473.78
2023-03-29T14:23:09.945Z,100476.81
2023-03-29T14:28:26.253Z,100459.16
2023-03-29T14:33:37.923Z,100457.63
2023-03-29T14:38:39.921Z,100461.41
2023-03-29T14:43:41.523Z,100456.31
2023-03-29T14:48:43.423Z,100455.47
2023-03-29T14:53:45.999Z,100448.72
2023-03-29T14:58:47.647Z,100454.00
2023-03-29T15:03:56.895Z,100445.97
2023-03-29T15:09:06.236Z,100439.16
2023-03-29T15:14:15.517Z,100435.28
2023-03-29T15:19:19.662Z,100427.69
2023-03-29T15:24:30.639Z,100417.50
2023-03-29T15:29:42.069Z,100411.84
2023-03-29T15:34:43.588Z,100402.56
2023-03-29T15:39:44.989Z,100404.63
2023-03-29T15:44:46.631Z,100394.84
2023-03-29T15:49:48.119Z,100396.94
2023-03-29T15:54:49.508Z,100377.97
2023-03-29T15:59:51.004Z,100385.03
2023-03-29T16:04:53.406Z,100373.94
2023-03-29T16:09:54.893Z,100370.66
2023-03-29T16:14:56.282Z,100357.00
2023-03-29T16:19:57.807Z,100359.19
2023-03-29T16:24:59.441Z,100357.25
2023-03-29T16:30:01.143Z,100356.63
2023-03-29T16:35:04.531Z,100363.66
2023-03-29T16:40:07.753Z,100359.50
2023-03-29T16:45:13.904Z,100362.41
2023-03-29T16:50:18.886Z,100353.91
2023-03-29T16:55:20.493Z,100356.53
2023-03-29T17:00:21.928Z,100348.81
2023-03-29T17:05:23.407Z,100353.81
2023-03-29T17:10:25.439Z,100346.81
2023-03-29T17:15:26.974Z,100339.50
2023-03-29T17:20:28.772Z,100340.56
2023-03-29T17:25:30.251Z,100346.84
2023-03-29T17:30:33.191Z,100341.22
2023-03-29T17:35:35.078Z,100346.75
2023-03-29T17:40:36.610Z,100348.47
2023-03-29T17:45:38.167Z,100340.41
2023-03-29T17:50:39.546Z,100351.41
2023-03-29T17:55:41.061Z,100350.16
2023-03-29T18:00:42.559Z,100355.00
2023-03-29T18:05:44.042Z,100358.97
2023-03-29T18:10:45.411Z,100359.94
2023-03-29T18:15:47.507Z,100366.44
2023-03-29T18:20:48.993Z,100365.16
2023-03-29T18:25:50.662Z,100369.94
2023-03-29T18:30:52.387Z,100378.09
2023-03-29T18:35:53.892Z,100384.44
2023-03-29T18:40:55.456Z,100382.50
2023-03-29T18:45:57.458Z,100398.19
2023-03-29T18:50:58.961Z,100398.34
2023-03-29T18:56:01.332Z,100397.09
2023-03-29T19:01:05.362Z,100395.41
2023-03-29T19:06:07.910Z,100401.16
2023-03-29T19:11:11.480Z,100403.81
2023-03-29T19:16:12.989Z,100395.78
2023-03-29T19:21:14.504Z,100392.13
2023-03-29T19:26:15.940Z,100387.31
2023-03-29T19:31:17.475Z,100388.19
2023-03-29T19:36:18.959Z,100387.78
2023-03-29T19:41:20.836Z,100380.84
2023-03-29T19:46:22.905Z,100385.84
2023-03-29T19:51:26.769Z,100376.31
2023-03-29T19:56:28.260Z,100374.56
2023-03-29T20:01:32.770Z,100380.75
2023-03-29T20:06:34.784Z,100367.13
2023-03-29T20:11:36.424Z,100361.59
2023-03-29T20:16:44.813Z,100355.56
2023-03-29T20:21:46.507Z,100337.16
2023-03-29T20:26:48.328Z,100342.06
2023-03-29T20:31:49.826Z,100332.41
2023-03-29T20:36:55.159Z,100333.50
2023-03-29T20:41:57.423Z,100319.41
2023-03-29T20:47:05.063Z,100307.03
2023-03-29T20:52:10.623Z,100312.78
2023-03-29T20:57:19.047Z,100294.56
2023-03-29T21:02:22.784Z,100287.31
2023-03-29T21:07:24.407Z,100281.97
2023-03-29T21:12:25.900Z,100284.84
2023-03-29T21:17:27.911Z,100278.84
2023-03-29T21:22:29.543Z,100273.59
2023-03-29T21:27:31.066Z,100262.31
2023-03-29T21:32:32.632Z,100267.38
2023-03-29T21:37:34.032Z,100263.44
2023-03-29T21:42:35.490Z,100252.91
2023-03-29T21:47:37.000Z,100253.25
2023-03-29T21:52:38.581Z,100251.00
2023-03-29T21:57:40.665Z,100256.19
2023-03-29T22:02:42.625Z,100258.66
2023-03-29T22:07:44.195Z,100246.19
2023-03-29T22:12:45.716Z,100237.63
2023-03-29T22:17:47.875Z,100228.69
2023-03-29T22:22:50.711Z,100238.47
2023-03-29T22:27:52.247Z,100237.69
2023-03-29T22:32:53.741Z,100233.22
2023-03-29T22:37:55.273Z,100239.56
2023-03-29T22:42:57.067Z,100239.84
2023-03-29T22:47:58.541Z,100227.81
2023-03-29T22:53:00.018Z,100226.78
2023-03-29T22:58:01.517Z,100222.00
2023-03-29T23:03:03.096Z,100217.81
2023-03-29T23:08:04.714Z,100216.41
2023-03-29T23:13:08.808Z,100218.34
2023-03-29T23:18:13.084Z,100207.69
2023-03-29T23:23:16.535Z,100203.66
2023-03-29T23:28:21.542Z,100187.81
2023-03-29T23:33:25.608Z,100187.38
2023-03-29T23:38:27.761Z,100188.72
2023-03-29T23:43:32.673Z,100182.59
2023-03-29T23:48:34.729Z,100186.34
2023-03-29T23:53:36.643Z,100196.41
2023-03-29T23:58:38.140Z,100187.63
